sensor_id;sensor_type;location;lat;lon;timestamp;P1;durP1;ratioP1;P2;durP2;ratioP2
74920;SDS011;63483;47.384;8.860;2023-03-14T00:00:32;0.93;;;0.30;;
74920;SDS011;63483;47.384;8.860;2023-03-14T00:02:57;0.70;;;0.30;;
74920;SDS011;63483;47.384;8.860;2023-03-14T00:05:23;1.07;;;0.20;;
74920;SDS011;63483;47.384;8.860;2023-03-14T00:07:48;1.20;;;0.77;;
74920;SDS011;63483;47.384;8.860;2023-03-14T00:10:14;0.80;;;0.40;;
74920;SDS011;63483;47.384;8.860;2023-03-14T00:12:40;1.00;;;0.30;;
74920;SDS011;63483;47.384;8.860;2023-03-14T00:15:06;1.58;;;0.40;;
74920;SDS011;63483;47.384;8.860;2023-03-14T00:17:33;0.90;;;0.45;;
74920;SDS011;63483;47.384;8.860;2023-03-14T00:19:59;0.98;;;0.50;;
74920;SDS011;63483;47.384;8.860;2023-03-14T00:22:30;1.15;;;0.40;;
74920;SDS011;63483;47.384;8.860;2023-03-14T00:24:57;1.77;;;0.77;;
74920;SDS011;63483;47.384;8.860;2023-03-14T00:27:22;0.82;;;0.30;;
74920;SDS011;63483;47.384;8.860;2023-03-14T00:29:47;1.30;;;0.43;;
74920;SDS011;63483;47.384;8.860;2023-03-14T00:32:13;0.80;;;0.30;;
74920;SDS011;63483;47.384;8.860;2023-03-14T00:34:38;1.93;;;0.50;;
74920;SDS011;63483;47.384;8.860;2023-03-14T00:37:04;0.90;;;0.57;;
74920;SDS011;63483;47.384;8.860;2023-03-14T00:39:30;0.60;;;0.30;;
74920;SDS011;63483;47.384;8.860;2023-03-14T00:41:55;1.30;;;0.47;;
74920;SDS011;63483;47.384;8.860;2023-03-14T00:44:21;0.93;;;0.60;;
74920;SDS011;63483;47.384;8.860;2023-03-14T00:46:46;0.50;;;0.10;;
74920;SDS011;63483;47.384;8.860;2023-03-14T00:49:11;0.70;;;0.50;;
74920;SDS011;63483;47.384;8.860;2023-03-14T00:51:36;0.57;;;0.20;;
74920;SDS011;63483;47.384;8.860;2023-03-14T00:54:02;0.70;;;0.47;;
74920;SDS011;63483;47.384;8.860;2023-03-14T00:56:27;1.23;;;0.23;;
74920;SDS011;63483;47.384;8.860;2023-03-14T00:58:53;1.63;;;0.37;;
74920;SDS011;63483;47.384;8.860;2023-03-14T01:01:20;0.70;;;0.40;;
74920;SDS011;63483;47.384;8.860;2023-03-14T01:03:46;0.70;;;0.20;;
74920;SDS011;63483;47.384;8.860;2023-03-14T01:06:16;0.70;;;0.50;;
74920;SDS011;63483;47.384;8.860;2023-03-14T01:08:43;0.63;;;0.28;;
74920;SDS011;63483;47.384;8.860;2023-03-14T01:11:09;0.82;;;0.40;;
74920;SDS011;63483;47.384;8.860;2023-03-14T01:13:37;1.37;;;0.40;;
74920;SDS011;63483;47.384;8.860;2023-03-14T01:16:03;1.52;;;0.35;;
74920;SDS011;63483;47.384;8.860;2023-03-14T01:18:31;0.70;;;0.30;;
74920;SDS011;63483;47.384;8.860;2023-03-14T01:20:57;5.22;;;1.85;;
74920;SDS011;63483;47.384;8.860;2023-03-14T01:23:23;0.83;;;0.47;;
74920;SDS011;63483;47.384;8.860;2023-03-14T01:25:48;0.70;;;0.40;;
74920;SDS011;63483;47.384;8.860;2023-03-14T01:28:14;0.60;;;0.30;;
74920;SDS011;63483;47.384;8.860;2023-03-14T01:30:39;0.67;;;0.30;;
74920;SDS011;63483;47.384;8.860;2023-03-14T01:33:04;0.60;;;0.25;;
74920;SDS011;63483;47.384;8.860;2023-03-14T01:35:30;0.70;;;0.40;;
74920;SDS011;63483;47.384;8.860;2023-03-14T01:37:55;0.77;;;0.37;;
74920;SDS011;63483;47.384;8.860;2023-03-14T01:40:20;1.00;;;0.47;;
74920;SDS011;63483;47.384;8.860;2023-03-14T01:42:47;1.43;;;0.40;;
74920;SDS011;63483;47.384;8.860;2023-03-14T01:48:23;0.70;;;0.20;;
74920;SDS011;63483;47.384;8.860;2023-03-14T01:50:50;0.57;;;0.10;;
74920;SDS011;63483;47.384;8.860;2023-03-14T01:53:16;0.50;;;0.20;;
74920;SDS011;63483;47.384;8.860;2023-03-14T01:55:46;0.68;;;0.25;;
74920;SDS011;63483;47.384;8.860;2023-03-14T01:58:15;0.80;;;0.50;;
74920;SDS011;63483;47.384;8.860;2023-03-14T02:00:41;1.83;;;0.30;;
74920;SDS011;63483;47.384;8.860;2023-03-14T02:03:11;0.80;;;0.43;;
74920;SDS011;63483;47.384;8.860;2023-03-14T02:05:41;0.50;;;0.10;;
74920;SDS011;63483;47.384;8.860;2023-03-14T02:08:09;0.52;;;0.20;;
74920;SDS011;63483;47.384;8.860;2023-03-14T02:10:39;1.55;;;0.20;;
74920;SDS011;63483;47.384;8.860;2023-03-14T02:13:07;0.60;;;0.30;;
74920;SDS011;63483;47.384;8.860;2023-03-14T02:15:33;0.90;;;0.30;;
74920;SDS011;63483;47.384;8.860;2023-03-14T02:17:59;1.75;;;0.55;;
74920;SDS011;63483;47.384;8.860;2023-03-14T02:23:00;1.65;;;0.30;;
74920;SDS011;63483;47.384;8.860;2023-03-14T02:28:13;0.75;;;0.20;;
74920;SDS011;63483;47.384;8.860;2023-03-14T02:30:39;0.73;;;0.30;;
74920;SDS011;63483;47.384;8.860;2023-03-14T02:35:45;0.70;;;0.55;;
74920;SDS011;63483;47.384;8.860;2023-03-14T02:38:24;0.50;;;0.23;;
74920;SDS011;63483;47.384;8.860;2023-03-14T02:40:55;0.80;;;0.43;;
74920;SDS011;63483;47.384;8.860;2023-03-14T02:43:20;0.70;;;0.30;;
74920;SDS011;63483;47.384;8.860;2023-03-14T02:45:50;0.60;;;0.43;;
74920;SDS011;63483;47.384;8.860;2023-03-14T02:48:18;0.70;;;0.30;;
74920;SDS011;63483;47.384;8.860;2023-03-14T02:50:46;0.50;;;0.25;;
74920;SDS011;63483;47.384;8.860;2023-03-14T02:53:15;0.80;;;0.22;;
74920;SDS011;63483;47.384;8.860;2023-03-14T02:55:46;1.35;;;0.30;;
74920;SDS011;63483;47.384;8.860;2023-03-14T02:58:12;0.60;;;0.30;;
74920;SDS011;63483;47.384;8.860;2023-03-14T03:00:37;0.40;;;0.10;;
74920;SDS011;63483;47.384;8.860;2023-03-14T03:03:03;0.80;;;0.37;;
74920;SDS011;63483;47.384;8.860;2023-03-14T03:05:30;0.65;;;0.45;;
74920;SDS011;63483;47.384;8.860;2023-03-14T03:07:56;0.67;;;0.47;;
74920;SDS011;63483;47.384;8.860;2023-03-14T03:10:22;1.40;;;0.20;;
74920;SDS011;63483;47.384;8.860;2023-03-14T03:12:47;0.50;;;0.20;;
74920;SDS011;63483;47.384;8.860;2023-03-14T03:15:12;0.50;;;0.20;;
74920;SDS011;63483;47.384;8.860;2023-03-14T03:17:38;0.60;;;0.30;;
74920;SDS011;63483;47.384;8.860;2023-03-14T03:20:03;0.53;;;0.30;;
74920;SDS011;63483;47.384;8.860;2023-03-14T03:22:30;0.65;;;0.30;;
74920;SDS011;63483;47.384;8.860;2023-03-14T03:24:56;0.77;;;0.57;;
74920;SDS011;63483;47.384;8.860;2023-03-14T03:27:21;0.53;;;0.20;;
74920;SDS011;63483;47.384;8.860;2023-03-14T03:29:46;0.77;;;0.45;;
74920;SDS011;63483;47.384;8.860;2023-03-14T03:32:12;0.50;;;0.20;;
74920;SDS011;63483;47.384;8.860;2023-03-14T03:34:38;0.70;;;0.20;;
74920;SDS011;63483;47.384;8.860;2023-03-14T03:37:03;0.70;;;0.52;;
74920;SDS011;63483;47.384;8.860;2023-03-14T03:39:28;0.63;;;0.43;;
74920;SDS011;63483;47.384;8.860;2023-03-14T03:41:54;0.70;;;0.50;;
74920;SDS011;63483;47.384;8.860;2023-03-14T03:44:19;1.27;;;0.50;;
74920;SDS011;63483;47.384;8.860;2023-03-14T03:46:45;0.50;;;0.30;;
74920;SDS011;63483;47.384;8.860;2023-03-14T03:49:10;0.70;;;0.35;;
74920;SDS011;63483;47.384;8.860;2023-03-14T03:51:35;0.60;;;0.27;;
74920;SDS011;63483;47.384;8.860;2023-03-14T03:54:00;0.53;;;0.30;;
74920;SDS011;63483;47.384;8.860;2023-03-14T03:56:26;0.70;;;0.50;;
74920;SDS011;63483;47.384;8.860;2023-03-14T03:58:51;0.70;;;0.40;;
74920;SDS011;63483;47.384;8.860;2023-03-14T04:01:16;0.87;;;0.60;;
74920;SDS011;63483;47.384;8.860;2023-03-14T04:03:42;0.77;;;0.50;;
74920;SDS011;63483;47.384;8.860;2023-03-14T04:06:11;0.60;;;0.33;;
74920;SDS011;63483;47.384;8.860;2023-03-14T04:08:38;1.75;;;0.30;;
74920;SDS011;63483;47.384;8.860;2023-03-14T04:11:05;1.20;;;0.40;;
74920;SDS011;63483;47.384;8.860;2023-03-14T04:13:31;0.50;;;0.20;;
74920;SDS011;63483;47.384;8.860;2023-03-14T04:15:56;1.40;;;0.38;;
74920;SDS011;63483;47.384;8.860;2023-03-14T04:18:22;0.80;;;0.20;;
74920;SDS011;63483;47.384;8.860;2023-03-14T04:20:55;0.63;;;0.20;;
74920;SDS011;63483;47.384;8.860;2023-03-14T04:23:23;0.60;;;0.40;;
74920;SDS011;63483;47.384;8.860;2023-03-14T04:25:49;0.70;;;0.30;;
74920;SDS011;63483;47.384;8.860;2023-03-14T04:28:16;0.77;;;0.40;;
74920;SDS011;63483;47.384;8.860;2023-03-14T04:30:41;1.00;;;0.90;;
74920;SDS011;63483;47.384;8.860;2023-03-14T04:33:07;1.25;;;0.50;;
74920;SDS011;63483;47.384;8.860;2023-03-14T04:35:32;1.60;;;0.60;;
74920;SDS011;63483;47.384;8.860;2023-03-14T04:37:58;1.77;;;0.63;;
74920;SDS011;63483;47.384;8.860;2023-03-14T04:40:24;1.63;;;0.67;;
74920;SDS011;63483;47.384;8.860;2023-03-14T04:42:50;0.90;;;0.50;;
74920;SDS011;63483;47.384;8.860;2023-03-14T04:45:15;0.63;;;0.40;;
74920;SDS011;63483;47.384;8.860;2023-03-14T04:47:41;0.70;;;0.50;;
74920;SDS011;63483;47.384;8.860;2023-03-14T04:50:06;0.80;;;0.32;;
74920;SDS011;63483;47.384;8.860;2023-03-14T04:52:32;1.00;;;0.40;;
74920;SDS011;63483;47.384;8.860;2023-03-14T04:54:58;0.60;;;0.37;;
74920;SDS011;63483;47.384;8.860;2023-03-14T04:57:23;0.80;;;0.60;;
74920;SDS011;63483;47.384;8.860;2023-03-14T04:59:49;0.90;;;0.77;;
74920;SDS011;63483;47.384;8.860;2023-03-14T05:02:14;0.80;;;0.50;;
74920;SDS011;63483;47.384;8.860;2023-03-14T05:04:39;0.93;;;0.43;;
74920;SDS011;63483;47.384;8.860;2023-03-14T05:07:04;1.10;;;0.97;;
74920;SDS011;63483;47.384;8.860;2023-03-14T05:09:30;1.20;;;0.83;;
74920;SDS011;63483;47.384;8.860;2023-03-14T05:11:55;0.90;;;0.50;;
74920;SDS011;63483;47.384;8.860;2023-03-14T05:14:21;1.00;;;0.43;;
74920;SDS011;63483;47.384;8.860;2023-03-14T05:16:46;3.13;;;1.80;;
74920;SDS011;63483;47.384;8.860;2023-03-14T05:19:11;2.10;;;0.93;;
74920;SDS011;63483;47.384;8.860;2023-03-14T05:21:37;1.10;;;0.70;;
74920;SDS011;63483;47.384;8.860;2023-03-14T05:24:02;0.82;;;0.35;;
74920;SDS011;63483;47.384;8.860;2023-03-14T05:26:28;1.43;;;0.40;;
74920;SDS011;63483;47.384;8.860;2023-03-14T05:28:54;0.93;;;0.47;;
74920;SDS011;63483;47.384;8.860;2023-03-14T05:31:19;0.90;;;0.40;;
74920;SDS011;63483;47.384;8.860;2023-03-14T05:33:45;1.40;;;0.60;;
74920;SDS011;63483;47.384;8.860;2023-03-14T05:36:10;1.10;;;0.30;;
74920;SDS011;63483;47.384;8.860;2023-03-14T05:38:36;1.65;;;0.65;;
74920;SDS011;63483;47.384;8.860;2023-03-14T05:41:01;4.93;;;1.43;;
74920;SDS011;63483;47.384;8.860;2023-03-14T05:43:26;1.40;;;0.43;;
74920;SDS011;63483;47.384;8.860;2023-03-14T05:45:52;1.40;;;0.60;;
74920;SDS011;63483;47.384;8.860;2023-03-14T05:48:17;1.30;;;0.57;;
74920;SDS011;63483;47.384;8.860;2023-03-14T05:50:43;1.20;;;0.30;;
74920;SDS011;63483;47.384;8.860;2023-03-14T05:53:09;0.97;;;0.40;;
74920;SDS011;63483;47.384;8.860;2023-03-14T05:55:34;1.45;;;0.40;;
74920;SDS011;63483;47.384;8.860;2023-03-14T05:57:59;1.20;;;0.50;;
74920;SDS011;63483;47.384;8.860;2023-03-14T06:00:25;1.40;;;0.53;;
74920;SDS011;63483;47.384;8.860;2023-03-14T06:02:50;1.87;;;1.20;;
74920;SDS011;63483;47.384;8.860;2023-03-14T06:05:16;0.90;;;0.50;;
74920;SDS011;63483;47.384;8.860;2023-03-14T06:07:41;0.80;;;0.33;;
74920;SDS011;63483;47.384;8.860;2023-03-14T06:10:06;0.73;;;0.33;;
74920;SDS011;63483;47.384;8.860;2023-03-14T06:12:32;1.25;;;0.40;;
74920;SDS011;63483;47.384;8.860;2023-03-14T06:14:57;1.77;;;1.10;;
74920;SDS011;63483;47.384;8.860;2023-03-14T06:17:23;1.97;;;0.73;;
74920;SDS011;63483;47.384;8.860;2023-03-14T06:19:48;0.90;;;0.50;;
74920;SDS011;63483;47.384;8.860;2023-03-14T06:22:14;0.97;;;0.33;;
74920;SDS011;63483;47.384;8.860;2023-03-14T06:24:39;3.27;;;1.10;;
74920;SDS011;63483;47.384;8.860;2023-03-14T06:27:05;5.57;;;2.15;;
74920;SDS011;63483;47.384;8.860;2023-03-14T06:29:31;13.20;;;5.17;;
74920;SDS011;63483;47.384;8.860;2023-03-14T06:31:56;9.27;;;3.80;;
74920;SDS011;63483;47.384;8.860;2023-03-14T06:34:22;4.10;;;1.07;;
74920;SDS011;63483;47.384;8.860;2023-03-14T06:36:47;2.53;;;0.50;;
74920;SDS011;63483;47.384;8.860;2023-03-14T06:39:12;5.40;;;1.00;;
74920;SDS011;63483;47.384;8.860;2023-03-14T06:41:38;6.60;;;0.70;;
74920;SDS011;63483;47.384;8.860;2023-03-14T06:44:03;2.43;;;0.43;;
74920;SDS011;63483;47.384;8.860;2023-03-14T06:46:29;1.80;;;0.40;;
74920;SDS011;63483;47.384;8.860;2023-03-14T06:48:54;1.93;;;0.50;;
74920;SDS011;63483;47.384;8.860;2023-03-14T06:51:19;1.83;;;0.70;;
74920;SDS011;63483;47.384;8.860;2023-03-14T06:53:45;1.77;;;0.70;;
74920;SDS011;63483;47.384;8.860;2023-03-14T06:56:10;1.80;;;0.80;;
74920;SDS011;63483;47.384;8.860;2023-03-14T06:58:36;1.00;;;0.30;;
74920;SDS011;63483;47.384;8.860;2023-03-14T07:01:01;1.70;;;0.50;;
74920;SDS011;63483;47.384;8.860;2023-03-14T07:03:26;1.45;;;0.50;;
74920;SDS011;63483;47.384;8.860;2023-03-14T07:05:52;1.17;;;0.50;;
74920;SDS011;63483;47.384;8.860;2023-03-14T07:08:18;2.28;;;1.05;;
74920;SDS011;63483;47.384;8.860;2023-03-14T07:10:43;2.47;;;0.80;;
74920;SDS011;63483;47.384;8.860;2023-03-14T07:13:09;1.30;;;0.67;;
74920;SDS011;63483;47.384;8.860;2023-03-14T07:15:34;1.50;;;0.70;;
74920;SDS011;63483;47.384;8.860;2023-03-14T07:17:59;2.10;;;0.47;;
74920;SDS011;63483;47.384;8.860;2023-03-14T07:20:25;2.53;;;0.75;;
74920;SDS011;63483;47.384;8.860;2023-03-14T07:22:50;1.40;;;0.70;;
74920;SDS011;63483;47.384;8.860;2023-03-14T07:25:16;2.07;;;0.70;;
74920;SDS011;63483;47.384;8.860;2023-03-14T07:27:45;1.70;;;0.50;;
74920;SDS011;63483;47.384;8.860;2023-03-14T07:30:11;1.38;;;0.85;;
74920;SDS011;63483;47.384;8.860;2023-03-14T07:32:37;2.53;;;0.60;;
74920;SDS011;63483;47.384;8.860;2023-03-14T07:35:02;1.30;;;0.47;;
74920;SDS011;63483;47.384;8.860;2023-03-14T07:37:28;1.60;;;0.88;;
74920;SDS011;63483;47.384;8.860;2023-03-14T07:39:53;1.37;;;0.70;;
74920;SDS011;63483;47.384;8.860;2023-03-14T07:42:19;1.30;;;0.70;;
74920;SDS011;63483;47.384;8.860;2023-03-14T07:44:44;1.60;;;0.50;;
74920;SDS011;63483;47.384;8.860;2023-03-14T07:47:09;1.70;;;0.80;;
74920;SDS011;63483;47.384;8.860;2023-03-14T07:49:35;2.27;;;0.97;;
74920;SDS011;63483;47.384;8.860;2023-03-14T07:52:00;1.70;;;0.98;;
74920;SDS011;63483;47.384;8.860;2023-03-14T07:54:26;1.80;;;1.03;;
74920;SDS011;63483;47.384;8.860;2023-03-14T07:56:51;2.20;;;0.90;;
74920;SDS011;63483;47.384;8.860;2023-03-14T07:59:17;3.67;;;0.87;;
74920;SDS011;63483;47.384;8.860;2023-03-14T08:01:43;1.92;;;1.10;;
74920;SDS011;63483;47.384;8.860;2023-03-14T08:04:08;2.70;;;0.80;;
74920;SDS011;63483;47.384;8.860;2023-03-14T08:06:34;1.10;;;0.47;;
74920;SDS011;63483;47.384;8.860;2023-03-14T08:09:00;1.40;;;0.77;;
74920;SDS011;63483;47.384;8.860;2023-03-14T08:11:26;1.10;;;0.40;;
74920;SDS011;63483;47.384;8.860;2023-03-14T08:13:51;0.80;;;0.40;;
74920;SDS011;63483;47.384;8.860;2023-03-14T08:16:17;1.10;;;0.40;;
74920;SDS011;63483;47.384;8.860;2023-03-14T08:18:43;0.88;;;0.40;;
74920;SDS011;63483;47.384;8.860;2023-03-14T08:21:08;0.60;;;0.30;;
74920;SDS011;63483;47.384;8.860;2023-03-14T08:23:34;0.83;;;0.50;;
74920;SDS011;63483;47.384;8.860;2023-03-14T08:25:59;0.80;;;0.40;;
74920;SDS011;63483;47.384;8.860;2023-03-14T08:28:25;1.00;;;0.40;;
74920;SDS011;63483;47.384;8.860;2023-03-14T08:30:55;0.75;;;0.20;;
74920;SDS011;63483;47.384;8.860;2023-03-14T08:33:21;0.90;;;0.40;;
74920;SDS011;63483;47.384;8.860;2023-03-14T08:35:46;1.10;;;0.37;;
74920;SDS011;63483;47.384;8.860;2023-03-14T08:38:12;0.90;;;0.40;;
74920;SDS011;63483;47.384;8.860;2023-03-14T08:40:37;0.80;;;0.40;;
74920;SDS011;63483;47.384;8.860;2023-03-14T08:43:02;0.90;;;0.30;;
74920;SDS011;63483;47.384;8.860;2023-03-14T08:45:27;0.70;;;0.57;;
74920;SDS011;63483;47.384;8.860;2023-03-14T08:47:53;1.27;;;0.87;;
74920;SDS011;63483;47.384;8.860;2023-03-14T08:50:18;1.30;;;0.50;;
74920;SDS011;63483;47.384;8.860;2023-03-14T08:52:44;3.57;;;0.70;;
74920;SDS011;63483;47.384;8.860;2023-03-14T08:55:09;1.90;;;0.83;;
74920;SDS011;63483;47.384;8.860;2023-03-14T08:57:34;1.80;;;0.80;;
74920;SDS011;63483;47.384;8.860;2023-03-14T09:00:01;2.22;;;0.65;;
74920;SDS011;63483;47.384;8.860;2023-03-14T09:02:30;1.70;;;0.30;;
74920;SDS011;63483;47.384;8.860;2023-03-14T09:04:55;0.60;;;0.20;;
74920;SDS011;63483;47.384;8.860;2023-03-14T09:07:20;1.00;;;0.50;;
74920;SDS011;63483;47.384;8.860;2023-03-14T09:09:46;1.50;;;0.63;;
74920;SDS011;63483;47.384;8.860;2023-03-14T09:12:11;1.07;;;0.70;;
74920;SDS011;63483;47.384;8.860;2023-03-14T09:14:37;0.82;;;0.60;;
74920;SDS011;63483;47.384;8.860;2023-03-14T09:17:03;2.67;;;0.50;;
74920;SDS011;63483;47.384;8.860;2023-03-14T09:19:29;0.90;;;0.30;;
74920;SDS011;63483;47.384;8.860;2023-03-14T09:21:54;1.03;;;0.50;;
74920;SDS011;63483;47.384;8.860;2023-03-14T09:24:20;0.90;;;0.70;;
74920;SDS011;63483;47.384;8.860;2023-03-14T09:26:45;1.65;;;0.65;;
74920;SDS011;63483;47.384;8.860;2023-03-14T09:29:11;1.03;;;0.30;;
74920;SDS011;63483;47.384;8.860;2023-03-14T09:31:36;1.07;;;0.30;;
74920;SDS011;63483;47.384;8.860;2023-03-14T09:34:02;1.67;;;0.60;;
74920;SDS011;63483;47.384;8.860;2023-03-14T09:36:27;1.27;;;0.47;;
74920;SDS011;63483;47.384;8.860;2023-03-14T09:38:53;0.70;;;0.20;;
74920;SDS011;63483;47.384;8.860;2023-03-14T09:41:28;1.40;;;0.60;;
74920;SDS011;63483;47.384;8.860;2023-03-14T09:44:00;1.10;;;0.50;;
74920;SDS011;63483;47.384;8.860;2023-03-14T09:46:29;0.95;;;0.32;;
74920;SDS011;63483;47.384;8.860;2023-03-14T09:48:58;1.88;;;0.98;;
74920;SDS011;63483;47.384;8.860;2023-03-14T09:51:24;0.93;;;0.47;;
74920;SDS011;63483;47.384;8.860;2023-03-14T09:53:51;1.10;;;0.20;;
74920;SDS011;63483;47.384;8.860;2023-03-14T09:56:18;2.15;;;0.85;;
74920;SDS011;63483;47.384;8.860;2023-03-14T09:58:48;1.20;;;0.50;;
74920;SDS011;63483;47.384;8.860;2023-03-14T10:01:20;1.00;;;0.32;;
74920;SDS011;63483;47.384;8.860;2023-03-14T10:03:50;0.90;;;0.60;;
74920;SDS011;63483;47.384;8.860;2023-03-14T10:06:18;1.17;;;0.50;;
74920;SDS011;63483;47.384;8.860;2023-03-14T10:08:44;2.17;;;0.82;;
74920;SDS011;63483;47.384;8.860;2023-03-14T10:11:16;0.90;;;0.20;;
74920;SDS011;63483;47.384;8.860;2023-03-14T10:16:31;1.75;;;0.90;;
74920;SDS011;63483;47.384;8.860;2023-03-14T10:19:03;1.20;;;0.50;;
74920;SDS011;63483;47.384;8.860;2023-03-14T10:21:35;2.22;;;0.60;;
74920;SDS011;63483;47.384;8.860;2023-03-14T10:26:48;1.33;;;0.53;;
74920;SDS011;63483;47.384;8.860;2023-03-14T10:29:16;2.55;;;0.40;;
74920;SDS011;63483;47.384;8.860;2023-03-14T10:31:55;1.63;;;0.63;;
74920;SDS011;63483;47.384;8.860;2023-03-14T10:34:35;1.02;;;0.60;;
74920;SDS011;63483;47.384;8.860;2023-03-14T10:37:21;1.33;;;0.47;;
74920;SDS011;63483;47.384;8.860;2023-03-14T10:39:52;3.30;;;0.60;;
74920;SDS011;63483;47.384;8.860;2023-03-14T10:42:34;2.00;;;0.50;;
74920;SDS011;63483;47.384;8.860;2023-03-14T10:47:53;2.00;;;0.60;;
74920;SDS011;63483;47.384;8.860;2023-03-14T10:50:26;1.23;;;0.80;;
74920;SDS011;63483;47.384;8.860;2023-03-14T10:52:53;1.02;;;0.50;;
74920;SDS011;63483;47.384;8.860;2023-03-14T10:55:19;1.13;;;0.50;;
74920;SDS011;63483;47.384;8.860;2023-03-14T10:57:45;1.40;;;0.70;;
74920;SDS011;63483;47.384;8.860;2023-03-14T11:00:14;1.27;;;0.32;;
74920;SDS011;63483;47.384;8.860;2023-03-14T11:05:53;0.88;;;0.28;;
74920;SDS011;63483;47.384;8.860;2023-03-14T11:08:32;1.10;;;0.50;;
74920;SDS011;63483;47.384;8.860;2023-03-14T11:11:25;2.10;;;0.52;;
74920;SDS011;63483;47.384;8.860;2023-03-14T11:19:40;0.70;;;0.30;;
74920;SDS011;63483;47.384;8.860;2023-03-14T11:27:59;0.80;;;0.40;;
74920;SDS011;63483;47.384;8.860;2023-03-14T11:38:55;0.75;;;0.20;;
74920;SDS011;63483;47.384;8.860;2023-03-14T11:41:25;0.80;;;0.40;;
74920;SDS011;63483;47.384;8.860;2023-03-14T11:43:55;1.00;;;0.40;;
74920;SDS011;63483;47.384;8.860;2023-03-14T11:48:55;0.70;;;0.28;;
74920;SDS011;63483;47.384;8.860;2023-03-14T11:51:31;0.80;;;0.55;;
74920;SDS011;63483;47.384;8.860;2023-03-14T11:54:11;0.80;;;0.52;;
74920;SDS011;63483;47.384;8.860;2023-03-14T11:56:59;0.83;;;0.40;;
74920;SDS011;63483;47.384;8.860;2023-03-14T11:59:29;0.57;;;0.32;;
74920;SDS011;63483;47.384;8.860;2023-03-14T12:01:57;0.68;;;0.38;;
74920;SDS011;63483;47.384;8.860;2023-03-14T12:07:38;0.80;;;0.45;;
74920;SDS011;63483;47.384;8.860;2023-03-14T12:10:08;0.87;;;0.70;;
74920;SDS011;63483;47.384;8.860;2023-03-14T12:12:34;0.80;;;0.40;;
74920;SDS011;63483;47.384;8.860;2023-03-14T12:15:01;0.60;;;0.30;;
74920;SDS011;63483;47.384;8.860;2023-03-14T12:17:37;0.77;;;0.30;;
74920;SDS011;63483;47.384;8.860;2023-03-14T12:22:43;0.93;;;0.30;;
74920;SDS011;63483;47.384;8.860;2023-03-14T12:35:46;1.00;;;0.30;;
74920;SDS011;63483;47.384;8.860;2023-03-14T12:43:45;0.80;;;0.45;;
74920;SDS011;63483;47.384;8.860;2023-03-14T12:48:43;0.90;;;0.30;;
74920;SDS011;63483;47.384;8.860;2023-03-14T12:59:58;0.80;;;0.30;;
74920;SDS011;63483;47.384;8.860;2023-03-14T13:02:26;1.55;;;0.52;;
74920;SDS011;63483;47.384;8.860;2023-03-14T13:05:14;0.65;;;0.30;;
74920;SDS011;63483;47.384;8.860;2023-03-14T13:12:37;1.87;;;0.40;;
74920;SDS011;63483;47.384;8.860;2023-03-14T13:17:48;0.93;;;0.47;;
74920;SDS011;63483;47.384;8.860;2023-03-14T13:20:20;1.13;;;0.52;;
74920;SDS011;63483;47.384;8.860;2023-03-14T13:22:51;1.37;;;0.20;;
74920;SDS011;63483;47.384;8.860;2023-03-14T13:25:17;0.90;;;0.30;;
74920;SDS011;63483;47.384;8.860;2023-03-14T13:27:45;0.80;;;0.30;;
74920;SDS011;63483;47.384;8.860;2023-03-14T13:30:16;1.42;;;0.30;;
74920;SDS011;63483;47.384;8.860;2023-03-14T13:32:45;1.30;;;0.60;;
74920;SDS011;63483;47.384;8.860;2023-03-14T13:35:19;0.98;;;0.30;;
74920;SDS011;63483;47.384;8.860;2023-03-14T13:37:51;1.13;;;0.40;;
74920;SDS011;63483;47.384;8.860;2023-03-14T13:40:24;1.97;;;0.50;;
74920;SDS011;63483;47.384;8.860;2023-03-14T13:43:01;0.82;;;0.40;;
74920;SDS011;63483;47.384;8.860;2023-03-14T13:45:48;1.73;;;0.60;;
74920;SDS011;63483;47.384;8.860;2023-03-14T13:48:14;1.20;;;0.50;;
74920;SDS011;63483;47.384;8.860;2023-03-14T13:50:44;1.35;;;0.50;;
74920;SDS011;63483;47.384;8.860;2023-03-14T13:53:11;1.37;;;0.40;;
74920;SDS011;63483;47.384;8.860;2023-03-14T13:55:37;1.48;;;0.40;;
74920;SDS011;63483;47.384;8.860;2023-03-14T13:58:02;1.00;;;0.50;;
74920;SDS011;63483;47.384;8.860;2023-03-14T14:00:27;1.47;;;1.00;;
74920;SDS011;63483;47.384;8.860;2023-03-14T14:02:54;2.28;;;0.80;;
74920;SDS011;63483;47.384;8.860;2023-03-14T14:05:21;2.50;;;0.90;;
74920;SDS011;63483;47.384;8.860;2023-03-14T14:07:48;2.78;;;0.60;;
74920;SDS011;63483;47.384;8.860;2023-03-14T14:10:15;1.63;;;0.90;;
74920;SDS011;63483;47.384;8.860;2023-03-14T14:15:20;2.22;;;0.93;;
74920;SDS011;63483;47.384;8.860;2023-03-14T14:17:51;2.13;;;0.88;;
74920;SDS011;63483;47.384;8.860;2023-03-14T14:20:30;3.17;;;1.17;;
74920;SDS011;63483;47.384;8.860;2023-03-14T14:23:03;1.40;;;0.70;;
74920;SDS011;63483;47.384;8.860;2023-03-14T14:25:30;1.80;;;0.70;;
74920;SDS011;63483;47.384;8.860;2023-03-14T14:27:56;2.72;;;0.68;;
74920;SDS011;63483;47.384;8.860;2023-03-14T14:30:24;1.50;;;0.80;;
74920;SDS011;63483;47.384;8.860;2023-03-14T14:32:52;1.52;;;0.52;;
74920;SDS011;63483;47.384;8.860;2023-03-14T14:35:25;1.37;;;0.33;;
74920;SDS011;63483;47.384;8.860;2023-03-14T14:37:50;1.52;;;0.40;;
74920;SDS011;63483;47.384;8.860;2023-03-14T14:40:21;1.63;;;0.47;;
74920;SDS011;63483;47.384;8.860;2023-03-14T14:42:48;2.07;;;0.97;;
74920;SDS011;63483;47.384;8.860;2023-03-14T14:45:21;2.80;;;0.80;;
74920;SDS011;63483;47.384;8.860;2023-03-14T14:47:57;1.50;;;0.70;;
74920;SDS011;63483;47.384;8.860;2023-03-14T14:50:30;1.25;;;0.68;;
74920;SDS011;63483;47.384;8.860;2023-03-14T14:52:59;1.63;;;1.00;;
74920;SDS011;63483;47.384;8.860;2023-03-14T14:55:44;2.07;;;0.67;;
74920;SDS011;63483;47.384;8.860;2023-03-14T14:58:18;1.35;;;0.45;;
74920;SDS011;63483;47.384;8.860;2023-03-14T15:00:50;1.27;;;0.52;;
74920;SDS011;63483;47.384;8.860;2023-03-14T15:03:21;3.70;;;0.90;;
74920;SDS011;63483;47.384;8.860;2023-03-14T15:05:46;1.10;;;0.60;;
74920;SDS011;63483;47.384;8.860;2023-03-14T15:08:12;1.57;;;0.40;;
74920;SDS011;63483;47.384;8.860;2023-03-14T15:10:38;2.05;;;0.50;;
74920;SDS011;63483;47.384;8.860;2023-03-14T15:13:04;1.87;;;0.63;;
74920;SDS011;63483;47.384;8.860;2023-03-14T15:15:29;1.50;;;0.50;;
74920;SDS011;63483;47.384;8.860;2023-03-14T15:17:55;1.42;;;0.70;;
74920;SDS011;63483;47.384;8.860;2023-03-14T15:20:20;1.13;;;0.40;;
74920;SDS011;63483;47.384;8.860;2023-03-14T15:22:48;1.25;;;0.50;;
74920;SDS011;63483;47.384;8.860;2023-03-14T15:25:14;1.98;;;0.50;;
74920;SDS011;63483;47.384;8.860;2023-03-14T15:27:40;1.63;;;0.52;;
74920;SDS011;63483;47.384;8.860;2023-03-14T15:30:11;2.37;;;0.83;;
74920;SDS011;63483;47.384;8.860;2023-03-14T15:32:37;1.77;;;0.30;;
74920;SDS011;63483;47.384;8.860;2023-03-14T15:35:03;2.33;;;0.63;;
74920;SDS011;63483;47.384;8.860;2023-03-14T15:37:28;1.20;;;0.50;;
74920;SDS011;63483;47.384;8.860;2023-03-14T15:39:54;2.10;;;0.50;;
74920;SDS011;63483;47.384;8.860;2023-03-14T15:42:22;1.35;;;0.70;;
74920;SDS011;63483;47.384;8.860;2023-03-14T15:44:48;2.33;;;0.73;;
74920;SDS011;63483;47.384;8.860;2023-03-14T15:47:13;1.10;;;0.70;;
74920;SDS011;63483;47.384;8.860;2023-03-14T15:49:39;1.77;;;0.60;;
74920;SDS011;63483;47.384;8.860;2023-03-14T15:52:04;1.30;;;0.50;;
74920;SDS011;63483;47.384;8.860;2023-03-14T15:54:30;1.43;;;0.53;;
74920;SDS011;63483;47.384;8.860;2023-03-14T15:56:55;1.73;;;0.40;;
74920;SDS011;63483;47.384;8.860;2023-03-14T15:59:21;2.25;;;0.57;;
74920;SDS011;63483;47.384;8.860;2023-03-14T16:01:47;1.92;;;0.40;;
74920;SDS011;63483;47.384;8.860;2023-03-14T16:04:13;1.73;;;0.50;;
74920;SDS011;63483;47.384;8.860;2023-03-14T16:06:39;1.88;;;0.50;;
74920;SDS011;63483;47.384;8.860;2023-03-14T16:09:04;1.60;;;0.50;;
74920;SDS011;63483;47.384;8.860;2023-03-14T16:11:29;3.00;;;0.47;;
74920;SDS011;63483;47.384;8.860;2023-03-14T16:13:55;1.70;;;0.50;;
74920;SDS011;63483;47.384;8.860;2023-03-14T16:16:20;1.10;;;0.53;;